Time;durP1;ratioP1;P1;durP2;ratioP2;P2;SDS_P1;SDS_P2;PMS_P1;PMS_P2;Temp;Humidity;BMP_temperature;BMP_pressure;BME280_temperature;BME280_humidity;BME280_pressure;Samples;Min_cycle;Max_cycle;Signal;HPM_P1;HPM_P2
2022/12/04 00:00:27;;;;;;;43.65;27.80;;;;;;;5.35;79.54;100516.78;4466920;32;34742;-73
2022/12/04 00:02:55;;;;;;;45.58;27.62;;;;;;;5.30;79.67;100523.78;4467575;32;33979;-74
2022/12/04 00:05:22;;;;;;;45.15;28.05;;;;;;;4.90;81.09;100518.91;4467638;32;33749;-74
2022/12/04 00:07:50;;;;;;;47.92;29.20;;;;;;;5.04;80.80;100524.41;4466466;32;33498;-74
2022/12/04 00:10:17;;;;;;;44.42;26.23;;;;;;;4.78;81.74;100508.84;4452767;32;33559;-73
2022/12/04 00:12:45;;;;;;;49.10;29.87;;;;;;;4.86;81.51;100522.16;4467799;32;34249;-75
2022/12/04 00:15:14;;;;;;;47.30;28.70;;;;;;;4.97;81.22;100515.41;4467568;32;33958;-75
2022/12/04 00:17:57;;;;;;;45.28;28.05;;;;;;;5.35;79.53;100516.78;4466510;32;33142;-72
2022/12/04 00:20:24;;;;;;;41.92;26.65;;;;;;;4.72;82.04;100513.97;4466700;32;33754;-74
2022/12/04 00:22:51;;;;;;;44.65;28.35;;;;;;;5.41;79.22;100517.84;4454452;32;34086;-74
2022/12/04 00:25:19;;;;;;;49.17;28.42;;;;;;;4.84;81.17;100518.84;4438898;32;33882;-75
2022/12/04 00:27:46;;;;;;;46.72;28.08;;;;;;;4.71;82.07;100527.63;4438968;32;33431;-74
2022/12/04 00:30:14;;;;;;;42.25;27.27;;;;;;;5.16;80.46;100522.00;4423806;32;34015;-74
2022/12/04 00:32:41;;;;;;;46.92;28.60;;;;;;;5.46;78.54;100528.84;4455825;32;34227;-74
2022/12/04 00:35:09;;;;;;;55.42;29.15;;;;;;;5.14;79.89;100535.66;4469626;32;34210;-77
2022/12/04 00:37:36;;;;;;;46.28;27.13;;;;;;;5.17;79.19;100524.50;4469346;32;33569;-74
2022/12/04 00:40:04;;;;;;;43.25;25.70;;;;;;;5.30;78.86;100526.47;4456551;32;34914;-75
2022/12/04 00:42:32;;;;;;;44.63;26.10;;;;;;;5.11;79.52;100531.47;4446908;32;35163;-75
2022/12/04 00:44:59;;;;;;;41.88;26.45;;;;;;;5.24;78.48;100514.63;4469241;32;33805;-74
2022/12/04 00:47:27;;;;;;;42.30;26.83;;;;;;;5.18;79.02;100514.56;4469779;32;33908;-74
2022/12/04 00:49:54;;;;;;;40.50;25.90;;;;;;;5.00;79.83;100513.19;4468899;32;34669;-76
2022/12/04 00:52:22;;;;;;;41.33;26.27;;;;;;;4.98;80.04;100509.03;4455529;32;34216;-75
2022/12/04 00:54:50;;;;;;;41.63;25.67;;;;;;;5.25;78.62;100515.47;4468729;32;33847;-73
2022/12/04 00:57:17;;;;;;;45.15;25.60;;;;;;;5.14;78.81;100530.28;4448464;32;32831;-74
2022/12/04 00:59:44;;;;;;;42.50;25.90;;;;;;;4.78;80.17;100527.69;4453151;32;34635;-75
2022/12/04 01:02:12;;;;;;;43.83;26.10;;;;;;;4.66;81.06;100530.03;4453877;32;34282;-75
2022/12/04 01:04:39;;;;;;;45.33;26.37;;;;;;;4.91;79.93;100525.94;4454226;32;33941;-75
2022/12/04 01:07:06;;;;;;;44.15;26.05;;;;;;;4.97;79.75;100528.87;4453845;32;33363;-73
2022/12/04 01:09:34;;;;;;;41.00;24.87;;;;;;;5.13;79.09;100532.13;4453159;32;34647;-76
2022/12/04 01:12:01;;;;;;;45.50;26.10;;;;;;;4.47;81.89;100518.87;4455849;32;34973;-75
2022/12/04 01:14:29;;;;;;;43.67;26.65;;;;;;;4.51;82.66;100519.31;4463334;32;34091;-73
2022/12/04 01:16:56;;;;;;;43.55;26.60;;;;;;;4.70;81.85;100516.00;4424553;32;34115;-75
2022/12/04 01:19:24;;;;;;;43.80;26.98;;;;;;;4.89;81.42;100525.28;4437761;32;34164;-74
2022/12/04 01:21:51;;;;;;;44.25;26.95;;;;;;;4.63;82.08;100517.81;4449599;32;34989;-75
2022/12/04 01:24:19;;;;;;;45.12;27.85;;;;;;;4.48;83.17;100512.47;4469548;32;34072;-74
2022/12/04 01:26:46;;;;;;;43.47;26.90;;;;;;;4.65;82.66;100514.94;4469529;32;33594;-74
2022/12/04 01:29:13;;;;;;;43.10;26.87;;;;;;;4.31;84.49;100519.09;4454113;32;33749;-78
2022/12/04 01:31:41;;;;;;;43.45;27.48;;;;;;;4.83;82.27;100515.31;4439368;32;35482;-74
2022/12/04 01:34:09;;;;;;;44.33;27.20;;;;;;;4.52;83.57;100521.00;4453232;32;34941;-76
2022/12/04 01:36:36;;;;;;;41.95;25.55;;;;;;;4.55;83.14;100519.78;4458827;32;34910;-73
2022/12/04 01:39:04;;;;;;;46.13;28.12;;;;;;;4.93;81.97;100520.38;4468321;32;33571;-75
2022/12/04 01:41:31;;;;;;;47.80;28.67;;;;;;;4.99;81.42;100516.91;4468785;32;33825;-74
2022/12/04 01:44:19;;;;;;;46.67;28.52;;;;;;;4.87;81.92;100521.97;4469324;32;33656;-74
2022/12/04 01:46:53;;;;;;;50.17;29.20;;;;;;;4.69;83.55;100519.72;4468679;32;33146;-74
2022/12/04 01:49:33;;;;;;;45.83;27.85;;;;;;;4.64;84.15;100508.69;4452590;32;34877;-74
2022/12/04 01:52:17;;;;;;;46.78;29.12;;;;;;;4.96;81.85;100517.28;4453093;32;33989;-74
2022/12/04 01:54:50;;;;;;;48.22;28.92;;;;;;;4.40;84.52;100506.38;4451967;32;34412;-74
2022/12/04 01:57:20;;;;;;;51.22;30.48;;;;;;;4.57;84.44;100509.66;4438773;32;33541;-74
2022/12/04 01:59:54;;;;;;;49.92;29.73;;;;;;;4.76;82.52;100505.53;4438023;32;33562;-73
2022/12/04 02:02:27;;;;;;;47.95;30.27;;;;;;;4.64;82.89;100507.87;4439233;32;34074;-74
2022/12/04 02:04:55;;;;;;;47.35;27.92;;;;;;;4.61;82.34;100498.34;4440006;32;33994;-76
2022/12/04 02:07:22;;;;;;;44.35;28.70;;;;;;;4.52;82.61;100494.94;4453366;32;33546;-74
2022/12/04 02:09:54;;;;;;;45.88;27.42;;;;;;;4.36;83.78;100499.72;4454444;32;34725;-76
2022/12/04 02:12:51;;;;;;;46.33;28.38;;;;;;;4.32;84.43;100502.81;4469699;32;34008;-74
2022/12/04 02:15:44;;;;;;;49.72;29.90;;;;;;;4.46;83.22;100500.25;4454726;32;33979;-74
2022/12/04 02:18:51;;;;;;;46.70;27.23;;;;;;;3.97;85.67;100493.69;4454790;32;34302;-73
2022/12/04 02:21:27;;;;;;;43.75;26.77;;;;;;;4.64;82.57;100494.44;4464793;32;33758;-75
2022/12/04 02:24:13;;;;;;;37.88;23.87;;;;;;;4.49;82.83;100487.28;4454878;32;34019;-77
2022/12/04 02:26:52;;;;;;;39.63;23.58;;;;;;;4.23;83.49;100489.66;4466994;32;34167;-73
2022/12/04 02:29:50;;;;;;;40.12;23.02;;;;;;;4.16;83.43;100491.44;4453646;32;35197;-74
2022/12/04 02:32:24;;;;;;;35.78;22.35;;;;;;;4.29;82.49;100491.59;4449582;32;34791;-77
2022/12/04 02:35:07;;;;;;;35.97;20.62;;;;;;;4.62;80.59;100491.09;4454989;32;34477;-73
2022/12/04 02:37:37;;;;;;;41.22;23.00;;;;;;;4.63;80.50;100495.47;4469445;32;33953;-77
2022/12/04 02:40:20;;;;;;;35.30;22.08;;;;;;;4.58;80.46;100498.75;4453091;32;34861;-73
2022/12/04 02:42:57;;;;;;;36.10;22.87;;;;;;;4.54;80.38;100497.47;4441801;32;33602;-77
2022/12/04 02:45:47;;;;;;;40.75;24.60;;;;;;;4.38;81.38;100497.69;4454307;32;34659;-76
2022/12/04 02:48:18;;;;;;;43.50;26.55;;;;;;;4.44;81.51;100499.62;4454418;32;33599;-75
2022/12/04 02:50:48;;;;;;;47.00;26.92;;;;;;;4.52;81.25;100494.94;4454108;32;34440;-75
2022/12/04 02:53:18;;;;;;;45.38;25.58;;;;;;;4.39;81.76;100491.31;4454647;32;33927;-78
2022/12/04 02:55:51;;;;;;;44.33;27.75;;;;;;;4.34;82.22;100491.00;4453717;32;34233;-75
2022/12/04 02:58:58;;;;;;;50.33;28.25;;;;;;;4.04;83.80;100491.06;4453408;32;33612;-74
2022/12/04 03:01:31;;;;;;;48.10;29.20;;;;;;;4.37;82.14;100483.41;4454747;32;32987;-76
2022/12/04 03:03:59;;;;;;;48.17;29.02;;;;;;;4.11;82.99;100478.59;4453178;32;33828;-75
2022/12/04 03:06:30;;;;;;;53.30;30.10;;;;;;;4.19;82.52;100486.53;4439363;32;34199;-74
2022/12/04 03:09:00;;;;;;;53.83;28.75;;;;;;;4.12;83.15;100477.53;4438060;32;33585;-73
2022/12/04 03:11:29;;;;;;;50.55;29.70;;;;;;;3.79;84.42;100482.53;4438050;32;33112;-75
2022/12/04 03:14:01;;;;;;;55.28;32.20;;;;;;;3.74;85.18;100488.44;4468615;32;33869;-74
2022/12/04 03:16:34;;;;;;;53.03;31.87;;;;;;;3.63;86.20;100488.91;4454192;32;34243;-72
2022/12/04 03:19:24;;;;;;;48.20;28.90;;;;;;;3.70;84.97;100487.97;4453863;32;34970;-73
2022/12/04 03:21:55;;;;;;;51.05;29.85;;;;;;;3.77;85.45;100490.75;4451336;32;34844;-73
2022/12/04 03:24:26;;;;;;;52.58;30.85;;;;;;;4.00;83.48;100490.63;4453057;32;34827;-73
2022/12/04 03:26:59;;;;;;;54.67;31.12;;;;;;;3.86;84.27;100489.62;4428055;32;34393;-72
2022/12/04 03:30:06;;;;;;;52.42;31.45;;;;;;;3.87;84.24;100487.78;4451003;32;34712;-73
2022/12/04 03:32:54;;;;;;;52.47;30.98;;;;;;;3.66;85.41;100488.53;4443624;32;34185;-72
2022/12/04 03:35:41;;;;;;;52.65;29.80;;;;;;;3.69;85.56;100486.31;4451465;32;34660;-73
2022/12/04 03:38:31;;;;;;;52.35;29.75;;;;;;;3.41;86.50;100486.12;4450905;32;34855;-72
2022/12/04 03:41:03;;;;;;;52.17;29.02;;;;;;;3.23;87.78;100488.31;4451481;32;33757;-73
2022/12/04 03:43:36;;;;;;;54.58;29.58;;;;;;;3.83;84.89;100491.88;4438740;32;33342;-72
2022/12/04 03:46:10;;;;;;;49.80;29.70;;;;;;;3.67;84.34;100496.41;4438778;32;34463;-73
2022/12/04 03:48:42;;;;;;;55.53;29.20;;;;;;;3.40;86.09;100497.03;4450600;32;33882;-73
2022/12/04 03:51:16;;;;;;;53.60;29.70;;;;;;;3.45;85.67;100497.31;4450163;32;33915;-75
2022/12/04 03:53:54;;;;;;;47.15;28.67;;;;;;;3.70;84.84;100487.97;4449761;32;32955;-73
2022/12/04 03:56:32;;;;;;;49.22;28.42;;;;;;;4.10;82.49;100493.00;4451530;32;34639;-73
2022/12/04 03:59:14;;;;;;;50.83;29.20;;;;;;;3.64;84.66;100496.75;4434823;32;34763;-73
2022/12/04 04:01:45;;;;;;;50.35;27.83;;;;;;;3.32;86.47;100497.94;4426481;32;32312;-73
2022/12/04 04:04:17;;;;;;;47.28;27.02;;;;;;;3.20;86.53;100486.84;4427065;32;32884;-74
2022/12/04 04:06:49;;;;;;;46.45;26.70;;;;;;;3.67;85.07;100483.00;4441741;32;33865;-72
2022/12/04 04:09:24;;;;;;;48.47;28.23;;;;;;;3.95;83.09;100479.62;4452510;32;34928;-72
2022/12/04 04:12:14;;;;;;;44.50;26.55;;;;;;;3.85;83.31;100479.91;4443822;32;34035;-73
2022/12/04 04:26:23;;;;;;;45.55;25.40;;;;;;;3.84;82.94;100497.03;4442585;32;34114;-73
2022/12/04 04:28:50;;;;;;;42.22;24.50;;;;;;;3.86;82.42;100495.00;4439646;32;33790;-71
2022/12/04 04:31:51;;;;;;;46.35;25.98;;;;;;;4.05;81.37;100501.63;4443744;32;33980;-75
2022/12/04 04:34:28;;;;;;;41.70;25.52;;;;;;;3.59;83.03;100504.53;4432809;32;33634;-73
2022/12/04 04:37:31;;;;;;;39.15;23.65;;;;;;;3.46;83.09;100501.69;4438634;32;33012;-73
2022/12/04 04:40:23;;;;;;;42.97;24.40;;;;;;;3.48;83.54;100510.38;4424768;32;33741;-76
2022/12/04 04:42:56;;;;;;;43.42;24.65;;;;;;;3.66;82.64;100508.16;4440831;32;34292;-76
2022/12/04 04:45:42;;;;;;;48.72;25.67;;;;;;;3.10;84.87;100498.84;4469686;32;34090;-77
2022/12/04 04:48:20;;;;;;;45.90;24.63;;;;;;;3.51;83.23;100490.38;4443016;32;33417;-78
2022/12/04 04:50:49;;;;;;;42.65;25.55;;;;;;;3.66;82.66;100493.91;4438581;32;33780;-78
2022/12/04 04:53:22;;;;;;;40.75;24.00;;;;;;;3.29;84.00;100498.31;4439773;32;33769;-80
2022/12/04 04:55:49;;;;;;;43.25;23.83;;;;;;;3.51;83.53;100495.75;4439259;32;34050;-81
2022/12/04 04:58:19;;;;;;;42.85;24.12;;;;;;;2.98;85.41;100485.88;4439313;32;33552;-74
2022/12/04 05:00:59;;;;;;;40.97;23.02;;;;;;;3.15;84.64;100488.37;4437149;32;34106;-78
2022/12/04 05:03:28;;;;;;;38.63;22.62;;;;;;;3.23;84.38;100501.72;4449751;32;33963;-82
2022/12/04 05:05:55;;;;;;;35.83;20.05;;;;;;;3.41;83.55;100512.09;4423668;32;34266;-79
2022/12/04 05:08:23;;;;;;;34.35;19.95;;;;;;;3.05;84.03;100507.44;4443287;32;34448;-78
2022/12/04 05:10:51;;;;;;;33.72;20.12;;;;;;;3.23;83.78;100513.28;4436784;32;33985;-77
2022/12/04 05:13:19;;;;;;;32.42;19.12;;;;;;;3.15;83.83;100502.63;4438283;32;34955;-76
2022/12/04 05:16:02;;;;;;;33.30;19.35;;;;;;;3.71;81.07;100504.91;4438077;32;33995;-73
2022/12/04 05:18:31;;;;;;;33.70;18.65;;;;;;;3.23;83.15;100504.41;4436449;32;33610;-83
2022/12/04 05:20:58;;;;;;;34.58;19.20;;;;;;;3.11;84.12;100500.50;4423370;32;33125;-75
2022/12/04 05:23:26;;;;;;;34.00;19.70;;;;;;;3.19;83.52;100501.25;4459467;32;34230;-76
2022/12/04 05:26:01;;;;;;;36.35;19.90;;;;;;;3.28;82.84;100491.28;4469244;32;34606;-80
2022/12/04 05:28:29;;;;;;;34.65;19.27;;;;;;;3.03;84.13;100488.00;4468095;32;33560;-77
2022/12/04 05:30:58;;;;;;;32.63;18.35;;;;;;;3.21;83.23;100485.81;4467962;32;33735;-77
2022/12/04 05:33:26;;;;;;;29.10;17.55;;;;;;;2.98;84.10;100487.69;4443605;32;33493;-75
2022/12/04 05:36:01;;;;;;;31.08;16.92;;;;;;;3.21;83.11;100495.72;4468237;32;34174;-76
2022/12/04 05:38:29;;;;;;;28.08;17.30;;;;;;;3.20;82.71;100494.06;4454273;32;33872;-76
2022/12/04 05:40:58;;;;;;;30.80;17.02;;;;;;;3.00;83.27;100497.25;4454672;32;34012;-75
2022/12/04 05:43:25;;;;;;;27.30;16.15;;;;;;;3.45;81.87;100498.13;4454840;32;34918;-77
2022/12/04 05:45:53;;;;;;;28.40;17.55;;;;;;;2.87;84.01;100489.81;4453904;32;34020;-82
2022/12/04 05:48:20;;;;;;;29.58;16.62;;;;;;;3.23;82.74;100493.69;4469829;32;33268;-76
2022/12/04 05:50:47;;;;;;;30.23;16.33;;;;;;;3.40;81.49;100494.34;4451590;32;34789;-78
2022/12/04 05:53:15;;;;;;;27.95;16.52;;;;;;;3.77;79.62;100493.44;4467693;32;34527;-78
2022/12/04 05:55:43;;;;;;;28.38;15.88;;;;;;;3.83;79.25;100505.28;4468493;32;35478;-79
2022/12/04 05:58:10;;;;;;;30.50;17.60;;;;;;;3.43;80.95;100499.34;4453922;32;33550;-78
2022/12/04 06:00:38;;;;;;;29.77;17.58;;;;;;;3.53;80.43;100497.22;4467760;32;34051;-77
2022/12/04 06:03:05;;;;;;;27.40;15.70;;;;;;;3.57;80.07;100495.03;4470576;32;35066;-78
2022/12/04 06:05:33;;;;;;;25.58;15.07;;;;;;;3.58;80.09;100502.88;4468178;32;34684;-77
2022/12/04 06:08:00;;;;;;;25.73;14.98;;;;;;;3.55;80.20;100507.78;4468373;32;35102;-74
2022/12/04 06:10:28;;;;;;;23.75;13.80;;;;;;;3.41;80.59;100499.53;4468711;32;34760;-82
2022/12/04 06:12:56;;;;;;;25.17;13.98;;;;;;;3.41;80.64;100496.88;4451071;32;33630;-77
2022/12/04 06:15:24;;;;;;;23.42;13.60;;;;;;;3.80;79.40;100505.63;4442447;32;103860;-81
2022/12/04 06:17:51;;;;;;;22.85;12.95;;;;;;;3.85;78.19;100512.13;4448721;32;32641;-80
2022/12/04 06:20:18;;;;;;;22.30;14.77;;;;;;;3.90;78.10;100515.06;4453045;32;33691;-75
2022/12/04 06:22:46;;;;;;;23.33;13.85;;;;;;;3.65;79.07;100511.00;4451102;32;32722;-82
2022/12/04 06:25:13;;;;;;;25.77;14.15;;;;;;;3.76;78.74;100510.56;4468586;32;34362;-71
2022/12/04 06:27:42;;;;;;;25.77;15.07;;;;;;;3.92;77.78;100504.16;4468310;32;34353;-79
2022/12/04 06:30:10;;;;;;;28.42;15.43;;;;;;;3.83;78.87;100513.34;4467610;32;33499;-77
2022/12/04 06:32:37;;;;;;;27.40;17.20;;;;;;;3.84;78.71;100520.34;4454553;32;34107;-79
2022/12/04 06:35:05;;;;;;;31.08;18.45;;;;;;;4.02;77.99;100517.31;4447182;32;34054;-79
2022/12/04 06:37:33;;;;;;;28.02;16.73;;;;;;;4.12;77.56;100512.47;4467814;32;33161;-79
2022/12/04 06:40:01;;;;;;;35.80;21.37;;;;;;;3.95;78.76;100511.00;4467552;32;34885;-81
2022/12/04 06:42:28;;;;;;;39.22;21.80;;;;;;;3.59;80.01;100509.09;4467832;32;35058;-88
2022/12/04 06:44:55;;;;;;;61.17;34.45;;;;;;;3.76;79.06;100513.25;4468044;32;34378;-81
2022/12/04 06:47:23;;;;;;;30.20;19.20;;;;;;;3.85;78.83;100504.06;4468037;32;33852;-80
2022/12/04 06:49:50;;;;;;;27.48;16.55;;;;;;;4.12;77.39;100496.34;4466726;32;33759;-80
2022/12/04 06:52:17;;;;;;;26.55;16.10;;;;;;;4.62;75.73;100499.16;4468191;32;33827;-84
2022/12/04 06:54:45;;;;;;;26.40;16.12;;;;;;;4.42;76.10;100507.03;4468206;32;34389;-79
2022/12/04 06:57:12;;;;;;;26.20;15.32;;;;;;;4.28;77.05;100501.50;4453005;32;34089;-82
2022/12/04 06:59:40;;;;;;;27.37;16.08;;;;;;;4.09;77.83;100500.25;4467823;32;33491;-80
2022/12/04 07:02:08;;;;;;;26.83;16.45;;;;;;;4.27;76.95;100489.09;4467573;32;34019;-79
2022/12/04 07:04:36;;;;;;;25.33;15.57;;;;;;;4.20;77.96;100495.41;4453343;32;34816;-80
2022/12/04 07:07:03;;;;;;;27.27;16.17;;;;;;;4.08;79.30;100489.69;4467891;32;33283;-81
2022/12/04 07:09:31;;;;;;;30.17;19.40;;;;;;;4.21;78.08;100495.25;4467937;32;34436;-78
2022/12/04 07:11:58;;;;;;;28.65;17.83;;;;;;;4.48;77.05;100509.78;4467137;32;33958;-79
2022/12/04 07:14:25;;;;;;;32.42;18.45;;;;;;;4.23;77.82;100500.41;4467843;32;33558;-78
2022/12/04 07:16:53;;;;;;;30.85;18.35;;;;;;;4.55;77.31;100498.28;4467837;32;34400;-81
2022/12/04 07:19:21;;;;;;;34.40;20.00;;;;;;;4.31;78.06;100508.34;4467490;32;33367;-82
2022/12/04 07:21:48;;;;;;;34.30;20.10;;;;;;;4.17;79.66;100509.22;4450995;32;34980;-83
2022/12/04 07:24:16;;;;;;;34.65;20.23;;;;;;;4.19;79.55;100508.03;4452364;32;34316;-84
2022/12/04 07:26:43;;;;;;;34.95;20.25;;;;;;;4.16;80.11;100510.25;4452710;32;33251;-84
2022/12/04 07:29:11;;;;;;;36.95;21.30;;;;;;;4.42;79.30;100505.16;4449136;32;33880;-84
2022/12/04 07:31:39;;;;;;;42.88;25.27;;;;;;;4.26;79.72;100495.50;4450319;32;34792;-85
2022/12/04 07:34:06;;;;;;;43.97;24.83;;;;;;;3.70;83.02;100503.25;4450520;32;33317;-81
2022/12/04 07:36:34;;;;;;;38.28;22.08;;;;;;;4.01;81.66;100507.56;4452411;32;33620;-79
2022/12/04 07:39:01;;;;;;;36.25;21.52;;;;;;;4.03;81.98;100506.38;4452078;32;33546;-79
2022/12/04 07:41:29;;;;;;;37.53;22.20;;;;;;;4.63;78.94;100509.72;4452272;32;35667;-81
2022/12/04 07:43:56;;;;;;;36.88;21.55;;;;;;;4.32;79.91;100510.84;4447757;32;33618;-79
2022/12/04 07:46:25;;;;;;;38.10;22.48;;;;;;;4.69;79.11;100516.22;4451710;32;33648;-80
2022/12/04 07:48:55;;;;;;;41.08;23.08;;;;;;;4.82;78.43;100508.28;4435494;32;34284;-78
2022/12/04 07:51:24;;;;;;;40.08;23.08;;;;;;;4.66;79.25;100520.09;4437893;32;34232;-79
2022/12/04 07:53:53;;;;;;;41.97;25.00;;;;;;;4.94;78.13;100519.34;4450949;32;33965;-79
2022/12/04 07:56:20;;;;;;;42.55;24.60;;;;;;;4.73;79.16;100517.50;4450166;32;33393;-82
2022/12/04 07:58:48;;;;;;;41.67;25.40;;;;;;;4.67;79.43;100512.88;4436127;32;33890;-86
2022/12/04 08:01:19;;;;;;;43.90;25.35;;;;;;;4.46;80.28;100511.00;4448662;32;34418;-84
2022/12/04 08:03:50;;;;;;;45.30;25.90;;;;;;;4.38;81.38;100509.25;4449363;32;33491;-77
2022/12/04 08:06:19;;;;;;;43.10;25.70;;;;;;;4.40;81.40;100501.00;4451951;32;34302;-73
2022/12/04 08:08:47;;;;;;;41.03;25.50;;;;;;;4.43;81.44;100514.09;4451212;32;34921;-73
2022/12/04 08:11:21;;;;;;;38.60;24.48;;;;;;;4.87;79.20;100513.06;4451213;32;34342;-73
2022/12/04 08:14:03;;;;;;;44.35;25.62;;;;;;;4.88;78.47;100517.41;4451503;32;34510;-75
2022/12/04 08:16:32;;;;;;;44.45;26.20;;;;;;;4.37;82.23;100517.53;4427923;32;33585;-78
2022/12/04 08:18:59;;;;;;;45.53;26.70;;;;;;;5.05;78.82;100509.91;4450302;32;33611;-76
2022/12/04 08:21:28;;;;;;;44.28;25.40;;;;;;;5.02;79.00;100513.00;4454269;32;35149;-72
2022/12/04 08:23:57;;;;;;;46.50;27.73;;;;;;;5.00;78.96;100513.19;4453015;32;34587;-76
2022/12/04 08:26:27;;;;;;;42.08;25.65;;;;;;;4.85;79.65;100501.69;4453119;32;33746;-72
2022/12/04 08:28:55;;;;;;;46.95;25.85;;;;;;;4.78;80.46;100503.47;4453212;32;33880;-77
2022/12/04 08:31:25;;;;;;;47.42;27.83;;;;;;;4.85;79.84;100515.13;4451245;32;33903;-79
2022/12/04 08:33:54;;;;;;;43.28;26.25;;;;;;;5.09;78.81;100508.50;4453135;32;33955;-80
2022/12/04 08:36:21;;;;;;;46.22;27.00;;;;;;;5.20;78.65;100509.84;4452435;32;33425;-76
2022/12/04 08:38:49;;;;;;;44.75;27.23;;;;;;;5.34;78.04;100508.91;4452319;32;34352;-73
2022/12/04 08:41:20;;;;;;;43.17;24.95;;;;;;;5.27;77.95;100498.09;4440117;32;34024;-73
2022/12/04 08:43:48;;;;;;;44.30;25.17;;;;;;;5.21;78.29;100508.81;4468640;32;34633;-71
2022/12/04 08:46:17;;;;;;;44.60;25.75;;;;;;;5.20;78.22;100515.22;4469268;32;32720;-73
2022/12/04 08:48:45;;;;;;;41.53;25.30;;;;;;;5.44;77.73;100513.94;4454670;32;34038;-71
2022/12/04 08:51:15;;;;;;;40.88;24.87;;;;;;;5.37;78.06;100513.06;4442249;32;34794;-76
2022/12/04 08:53:43;;;;;;;41.05;24.77;;;;;;;5.16;79.33;100512.06;4439878;32;33853;-77
2022/12/04 08:56:10;;;;;;;43.17;25.10;;;;;;;5.87;76.10;100511.91;4427151;32;34237;-77
2022/12/04 08:58:38;;;;;;;38.92;24.50;;;;;;;5.50;77.37;100511.28;4438986;32;33985;-77
2022/12/04 09:01:09;;;;;;;37.78;23.60;;;;;;;5.78;76.18;100505.03;4438711;32;34675;-79
2022/12/04 09:03:38;;;;;;;41.00;25.15;;;;;;;5.77;76.02;100508.78;4439494;32;33615;-80
2022/12/04 09:06:07;;;;;;;39.20;23.15;;;;;;;5.42;77.88;100511.47;4439570;32;34091;-77
2022/12/04 09:08:36;;;;;;;41.42;24.58;;;;;;;5.75;76.35;100500.06;4438842;32;33912;-75
2022/12/04 09:11:06;;;;;;;36.78;23.70;;;;;;;5.99;75.64;100500.63;4460893;32;34318;-80
2022/12/04 09:13:35;;;;;;;41.88;25.10;;;;;;;5.43;77.62;100502.34;4452866;32;34046;-75
2022/12/04 09:16:09;;;;;;;40.08;24.02;;;;;;;5.71;76.83;100498.81;4439849;32;33393;-78
2022/12/04 09:18:37;;;;;;;37.20;22.17;;;;;;;6.03;75.98;100500.03;4452860;32;34704;-77
2022/12/04 09:21:08;;;;;;;39.63;24.02;;;;;;;6.11;75.27;100494.47;4453639;32;33472;-79
2022/12/04 09:23:40;;;;;;;39.20;24.00;;;;;;;6.28;74.48;100491.41;4455334;32;35192;-79
2022/12/04 09:26:34;;;;;;;38.20;25.23;;;;;;;6.23;74.84;100493.88;4454825;32;33178;-78
2022/12/04 09:29:04;;;;;;;36.72;22.87;;;;;;;6.02;75.79;100494.84;4443845;32;34534;-84
2022/12/04 09:31:33;;;;;;;40.67;24.33;;;;;;;6.10;76.48;100495.50;4439252;32;35589;-86
2022/12/04 09:34:03;;;;;;;40.70;25.62;;;;;;;5.71;77.00;100483.47;4427763;32;34694;-87
2022/12/04 09:36:30;;;;;;;41.70;25.48;;;;;;;6.21;75.57;100488.69;4458569;32;33672;-83
2022/12/04 09:38:59;;;;;;;51.42;30.85;;;;;;;5.72;77.45;100474.37;4468638;32;34078;-81
2022/12/04 09:41:35;;;;;;;42.25;25.23;;;;;;;6.23;76.40;100483.12;4468254;32;34531;-75
2022/12/04 09:44:23;;;;;;;35.65;23.87;;;;;;;6.51;74.78;100473.03;4463291;32;33962;-78
2022/12/04 09:47:00;;;;;;;38.97;23.67;;;;;;;6.23;76.25;100459.69;4449068;32;33758;-81
2022/12/04 09:50:01;;;;;;;38.88;24.87;;;;;;;6.02;76.49;100470.59;4435666;32;34674;-80
2022/12/04 09:52:37;;;;;;;33.47;22.92;;;;;;;6.52;74.44;100454.97;4415356;32;33984;-82
2022/12/04 09:55:13;;;;;;;40.00;23.00;;;;;;;6.14;75.99;100445.56;4437000;32;33198;-89
2022/12/04 09:57:44;;;;;;;38.28;22.70;;;;;;;6.35;75.21;100447.28;4448728;32;33430;-75
2022/12/04 10:00:15;;;;;;;37.22;22.95;;;;;;;6.56;73.83;100448.97;4423074;32;33905;-77
2022/12/04 10:02:48;;;;;;;36.88;22.75;;;;;;;6.24;75.11;100444.34;4422700;32;34022;-80
2022/12/04 10:05:20;;;;;;;33.47;21.60;;;;;;;6.30;74.98;100440.84;4448802;32;34803;-86
2022/12/04 10:07:58;;;;;;;37.40;21.55;;;;;;;5.99;76.90;100439.50;4423356;32;33471;-82
2022/12/04 10:10:34;;;;;;;37.72;22.10;;;;;;;5.80;77.55;100445.62;4422532;32;34121;-81
2022/12/04 10:13:45;;;;;;;32.22;20.88;;;;;;;6.40;75.68;100441.28;4435567;32;34682;-80
2022/12/04 10:16:29;;;;;;;30.75;18.37;;;;;;;6.96;72.53;100438.22;4437435;32;33686;-82
2022/12/04 10:19:36;;;;;;;28.87;18.85;;;;;;;6.97;71.51;100433.63;4422953;32;35024;-78
2022/12/04 10:22:07;;;;;;;;;;;;;;;7.50;70.34;100430.88;4423801;32;34055;-81
2022/12/04 10:24:39;;;;;;;23.92;14.30;;;;;;;7.08;71.16;100429.47;4437558;32;34570;-76
2022/12/04 10:27:16;;;;;;;21.35;12.37;;;;;;;7.26;68.75;100421.59;4437700;32;34381;-78
2022/12/04 10:29:48;;;;;;;19.50;12.13;;;;;;;7.59;66.52;100423.37;4423349;32;33655;-77
2022/12/04 10:32:19;;;;;;;21.27;13.65;;;;;;;7.65;65.52;100410.91;4423448;32;33957;-75
2022/12/04 10:34:53;;;;;;;21.70;12.85;;;;;;;7.49;66.35;100410.28;4427760;32;34244;-76
2022/12/04 10:37:21;;;;;;;22.42;13.65;;;;;;;7.42;67.08;100422.16;4436985;32;33459;-74
2022/12/04 10:39:54;;;;;;;20.77;12.63;;;;;;;7.08;68.01;100411.41;4452789;32;34441;-75
2022/12/04 10:42:40;;;;;;;18.95;11.40;;;;;;;7.49;67.01;100404.91;4452894;32;33979;-76
2022/12/04 10:45:14;;;;;;;16.83;10.77;;;;;;;7.43;65.89;100399.53;4438812;32;34317;-78
2022/12/04 10:47:44;;;;;;;16.83;11.27;;;;;;;7.38;65.71;100387.47;4426279;32;33638;-80
2022/12/04 10:50:15;;;;;;;16.77;10.88;;;;;;;7.63;65.16;100389.50;4452514;32;33739;-79
2022/12/04 10:52:43;;;;;;;20.15;11.60;;;;;;;7.76;64.20;100391.31;4437867;32;33762;-82
2022/12/04 10:55:11;;;;;;;18.15;11.48;;;;;;;7.88;64.28;100381.47;4453081;32;34238;-75
2022/12/04 10:57:41;;;;;;;19.40;11.52;;;;;;;8.11;63.17;100380.94;4452278;32;34121;-75
2022/12/04 11:00:34;;;;;;;19.23;11.75;;;;;;;7.86;64.52;100375.47;4452648;32;34629;-75
2022/12/04 11:03:08;;;;;;;20.80;12.57;;;;;;;8.13;63.12;100372.63;4452564;32;33526;-72
2022/12/04 11:05:56;;;;;;;20.27;12.13;;;;;;;7.42;65.41;100369.00;4437934;32;34179;-76
2022/12/04 11:08:32;;;;;;;18.08;11.95;;;;;;;7.97;63.42;100374.78;4438469;32;33751;-75
2022/12/04 11:11:05;;;;;;;20.83;12.82;;;;;;;7.12;66.96;100357.88;4437944;32;33518;-77
2022/12/04 11:13:33;;;;;;;21.40;13.00;;;;;;;7.38;66.35;100340.75;4438113;32;34583;-76
2022/12/04 11:16:01;;;;;;;19.40;12.32;;;;;;;7.74;65.41;100342.09;4452679;32;34413;-75
2022/12/04 11:18:31;;;;;;;22.25;13.23;;;;;;;7.74;65.61;100333.97;4438274;32;33622;-76
2022/12/04 11:21:11;;;;;;;20.58;13.48;;;;;;;7.93;65.09;100335.75;4438741;32;33568;-75
2022/12/04 11:23:48;;;;;;;20.42;13.00;;;;;;;8.14;64.07;100342.69;4453599;32;32724;-76
2022/12/04 11:26:17;;;;;;;20.40;13.07;;;;;;;7.86;64.72;100343.06;4452542;32;34887;-76
2022/12/04 11:28:51;;;;;;;22.02;14.07;;;;;;;7.76;65.43;100342.69;4450058;32;33639;-75
2022/12/04 11:31:21;;;;;;;22.60;14.35;;;;;;;7.55;66.79;100333.03;4450216;32;33132;-76
2022/12/04 11:33:53;;;;;;;24.25;15.50;;;;;;;7.54;66.89;100343.00;4451178;32;34434;-77
2022/12/04 11:36:27;;;;;;;22.42;14.02;;;;;;;7.40;67.12;100333.28;4443356;32;35227;-72
2022/12/04 11:39:18;;;;;;;22.05;13.85;;;;;;;7.66;66.96;100336.91;4452042;32;33964;-77
2022/12/04 11:41:46;;;;;;;22.98;14.18;;;;;;;7.67;67.04;100330.50;4442401;32;34207;-73
2022/12/04 11:44:26;;;;;;;21.75;15.38;;;;;;;8.30;64.54;100324.28;4468170;32;34061;-75
2022/12/04 11:46:56;;;;;;;27.60;17.33;;;;;;;8.09;66.11;100320.03;4453705;32;34955;-72
2022/12/04 11:49:26;;;;;;;23.10;15.27;;;;;;;8.11;65.42;100320.66;4453288;32;34173;-74
2022/12/04 11:52:35;;;;;;;23.10;14.75;;;;;;;8.65;63.92;100321.91;4467833;32;34459;-79